Flight Track Log - Related Links

Times and Time Zones

All times are in EDT time to prevent confusion due to time zone crossing. See the N118BJ flight status page for this flight to view local times or setup timezone preferences in your user account.

Time Position Orientation Groundspeed Altitude Reporting Facility
EDT Latitude Longitude Course Direction KTS MPH feet Rate Location/Type
Mon 03:57:33 PM 33.5683 -86.7514 359° North 79 91 1,100  Level Atlanta Center
Mon 03:58:27 PM 33.5869 -86.7519 359° North 76 87 1,800 783 Climbing Atlanta Center
Mon 03:59:28 PM 33.6014 -86.7647 324° Northwest 59 68 2,600 793 Climbing Atlanta Center
Mon 04:00:28 PM 33.6092 -86.7825 298° West 66 76 3,400 694 Climbing Atlanta Center
Mon 04:01:29 PM 33.6192 -86.8028 301° West 64 74 4,000 595 Climbing Atlanta Center
Mon 04:02:29 PM 33.6292 -86.8206 304° West 67 77 4,600 595 Climbing Atlanta Center
Mon 04:03:30 PM 33.6372 -86.8408 296° West 65 75 5,200 621 Climbing Atlanta Center
Mon 04:04:25 PM 33.6472 -86.8561 308° West 62 71 5,800 574 Climbing Atlanta Center
Mon 04:05:25 PM 33.6553 -86.8714 302° West 62 71 6,300 545 Climbing Atlanta Center
Mon 04:06:26 PM 33.6653 -86.8892 304° West 64 74 6,900 496 Climbing Atlanta Center
Mon 04:07:26 PM 33.6711 -86.9067 292° West 62 71 7,300 347 Climbing Atlanta Center
Mon 04:08:27 PM 33.6792 -86.9244 299° West 62 71 7,600 344 Climbing Atlanta Center
Mon 04:09:28 PM 33.6889 -86.9472 297° West 67 77 8,000 198 Climbing Atlanta Center
Mon 04:10:28 PM 33.7050 -86.9753 305° West 92 106 8,000  Level Atlanta Center
Mon 04:11:29 PM 33.7125 -87.0056 287° West 102 117 8,000  Level Atlanta Center
Mon 04:12:29 PM 33.7222 -87.0358 291° West 96 110 8,000  Level Atlanta Center
Mon 04:13:30 PM 33.7319 -87.0661 291° West 95 109 8,000  Level Atlanta Center
Mon 04:15:56 PM 33.7653 -87.1264 304° West 102 117 8,000  Level Memphis Center
Mon 04:16:56 PM 33.7786 -87.1533 301° West 96 110 8,000  Level Memphis Center
Mon 04:17:56 PM 33.7919 -87.1803 301° West 96 110 8,000  Level Memphis Center
Mon 04:18:56 PM 33.8050 -87.2050 302° West 96 110 8,000  Level Memphis Center
Mon 04:19:56 PM 33.8183 -87.2344 299° West 96 110 8,000  Level Memphis Center
Mon 04:20:56 PM 33.8272 -87.2592 293° West 96 110 8,000  Level Memphis Center
Mon 04:21:56 PM 33.8383 -87.2861 296° West 96 110 8,000  Level Memphis Center
Mon 04:22:56 PM 33.8517 -87.3158 298° West 96 110 8,000  Level Memphis Center
Mon 04:23:56 PM 33.8647 -87.3428 300° West 96 110 8,000  Level Memphis Center
Mon 04:24:56 PM 33.8758 -87.3725 294° West 96 110 8,000  Level Memphis Center
Mon 04:25:56 PM 33.8911 -87.3969 307° West 96 110 8,000  Level Memphis Center
Mon 04:26:56 PM 33.9064 -87.4239 304° West 96 110 8,000  Level Memphis Center
Mon 04:27:56 PM 33.9175 -87.4511 296° West 96 110 8,000  Level Memphis Center
Mon 04:28:56 PM 33.9264 -87.4833 288° West 96 110 8,000  Level Memphis Center
Mon 04:29:56 PM 33.9375 -87.5106 296° West 96 110 8,000  Level Memphis Center
Mon 04:30:56 PM 33.9528 -87.5375 304° West 91 105 8,000  Level Memphis Center
Mon 04:31:56 PM 33.9658 -87.5647 300° West 91 105 8,000  Level Memphis Center
Mon 04:32:56 PM 33.9750 -87.5919 292° West 91 105 8,000  Level Memphis Center
Mon 04:33:56 PM 33.9881 -87.6192 300° West 91 105 8,000  Level Memphis Center
Mon 04:34:56 PM 33.9989 -87.6436 298° West 91 105 8,000  Level Memphis Center
Mon 04:35:56 PM 34.0122 -87.6708 301° West 91 105 8,000  Level Memphis Center
Mon 04:36:56 PM 34.0231 -87.6981 296° West 91 105 8,000  Level Memphis Center
Mon 04:37:56 PM 34.0383 -87.7228 307° West 91 105 8,000  Level Memphis Center
Mon 04:38:56 PM 34.0492 -87.7450 300° West 91 105 8,000  Level Memphis Center
Mon 04:39:56 PM 34.0603 -87.7747 294° West 96 110 8,000 -50 Level Memphis Center
Mon 04:40:56 PM 34.0733 -87.8019 300° West 96 110 7,900 -50 Descending Memphis Center
Mon 04:41:56 PM 34.0842 -87.8292 296° West 96 110 7,900  Level Memphis Center
Mon 04:42:56 PM 34.0975 -87.8589 298° West 96 110 7,900  Level Memphis Center
Mon 04:43:56 PM 34.1106 -87.8861 300° West 96 110 7,900  Level Memphis Center
Mon 04:44:56 PM 34.1214 -87.9158 294° West 96 110 7,900  Level Memphis Center
Mon 04:45:56 PM 34.1344 -87.9431 300° West 96 110 7,900  Level Memphis Center
Mon 04:46:56 PM 34.1497 -87.9728 302° West 96 110 7,900  Level Memphis Center
Mon 04:47:56 PM 34.1628 -88.0025 298° West 96 110 7,900  Level Memphis Center
Mon 04:48:56 PM 34.1758 -88.0347 296° West 101 116 7,900  Level Memphis Center
Mon 04:49:56 PM 34.1889 -88.0622 300° West 101 116 7,900  Level Memphis Center
Mon 04:50:56 PM 34.2019 -88.0894 300° West 101 116 7,900 50 Level Memphis Center
Mon 04:51:56 PM 34.2131 -88.1167 296° West 95 109 8,000 50 Climbing Memphis Center
Mon 04:52:56 PM 34.2258 -88.1442 299° West 95 109 8,000  Level Memphis Center
Mon 04:53:56 PM 34.2411 -88.1711 304° West 95 109 8,000 -50 Level Memphis Center
Mon 04:54:56 PM 34.2542 -88.2036 296° West 95 109 7,900  Descending Memphis Center
Mon 04:55:56 PM 34.2672 -88.2333 298° West 95 109 8,000 50 Climbing Memphis Center
Mon 04:56:56 PM 34.2822 -88.2633 301° West 95 109 8,000  Level Memphis Center
Mon 04:57:56 PM 34.2931 -88.2906 296° West 95 109 8,000  Level Memphis Center
Mon 04:58:56 PM 34.3061 -88.3181 300° West 95 109 8,000  Level Memphis Center
Mon 04:59:56 PM 34.3192 -88.3478 298° West 95 109 8,000 -50 Level Memphis Center
Mon 05:00:56 PM 34.3281 -88.3778 290° West 95 109 7,900  Descending Memphis Center
Mon 05:01:56 PM 34.3408 -88.4053 299° West 95 109 8,000 50 Climbing Memphis Center
Mon 05:02:56 PM 34.3539 -88.4325 300° West 95 109 8,000  Level Memphis Center
Mon 05:03:56 PM 34.3647 -88.4600 296° West 95 109 8,000  Level Memphis Center
Mon 05:04:56 PM 34.3797 -88.4872 304° West 95 109 8,000 -50 Level Memphis Center
Mon 05:05:56 PM 34.3886 -88.5122 293° West 95 109 7,900 -50 Descending Memphis Center
Mon 05:06:56 PM 34.4036 -88.5397 303° West 95 109 7,900 50 Level Memphis Center
Mon 05:07:56 PM 34.4144 -88.5697 294° West 95 109 8,000 50 Climbing Memphis Center
Mon 05:08:56 PM 34.4272 -88.5969 300° West 95 109 8,000  Level Memphis Center
Mon 05:09:56 PM 34.4381 -88.6269 294° West 95 109 8,000  Level Memphis Center
Mon 05:10:56 PM 34.4489 -88.6544 296° West 95 109 8,000  Level Memphis Center
Mon 05:11:56 PM 34.4597 -88.6794 298° West 95 109 8,000  Level Memphis Center
Mon 05:12:56 PM 34.4725 -88.7069 299° West 95 109 8,000  Level Memphis Center
Mon 05:13:56 PM 34.4875 -88.7344 304° West 95 109 8,000  Level Memphis Center
Mon 05:14:56 PM 34.4983 -88.7644 294° West 95 109 8,000 -100 Level Memphis Center
Mon 05:15:56 PM 34.5133 -88.7919 304° West 95 109 7,800 -250 Descending Memphis Center
Mon 05:16:56 PM 34.5283 -88.8219 301° West 95 109 7,500 -300 Descending Memphis Center
Mon 05:17:56 PM 34.5433 -88.8519 301° West 101 116 7,200 -350 Descending Memphis Center
Mon 05:18:56 PM 34.5625 -88.8842 306° West 101 116 6,800 -400 Descending Memphis Center
Mon 05:19:56 PM 34.5775 -88.9169 299° West 106 122 6,400 -400 Descending Memphis Center
Mon 05:20:56 PM 34.5925 -88.9469 301° West 106 122 6,000 -200 Descending Memphis Center
Mon 05:21:56 PM 34.6011 -88.9769 289° West 106 122 6,000  Level Memphis Center
Mon 05:22:56 PM 34.6139 -89.0069 297° West 101 116 6,000  Level Memphis Center
Mon 05:23:56 PM 34.6269 -89.0372 298° West 101 116 6,000  Level Memphis Center
Mon 05:24:56 PM 34.6375 -89.0672 293° West 101 116 6,000  Level Memphis Center
Mon 05:25:56 PM 34.6483 -89.0975 294° West 101 116 6,000  Level Memphis Center
Mon 05:26:56 PM 34.6569 -89.1250 291° West 101 116 6,000  Level Memphis Center
Mon 05:27:56 PM 34.6697 -89.1550 297° West 95 109 6,000  Level Memphis Center
Mon 05:28:56 PM 34.6847 -89.1828 303° West 95 109 6,000  Level Memphis Center
Mon 05:29:56 PM 34.6953 -89.2128 293° West 95 109 6,000  Level Memphis Center
Mon 05:30:56 PM 34.7081 -89.2406 299° West 95 109 6,000  Level Memphis Center
Mon 05:31:56 PM 34.7208 -89.2681 299° West 95 109 6,000  Level Memphis Center
Mon 05:32:56 PM 34.7356 -89.2933 305° West 100 115 6,000 -100 Level Memphis Center
Mon 05:33:56 PM 34.7589 -89.3181 319° Northwest 93 107 5,800 -300 Descending Memphis Center
Mon 05:34:56 PM 34.7800 -89.3406 319° Northwest 98 113 5,400 -400 Descending Memphis Center
Mon 05:35:56 PM 34.8031 -89.3656 318° Northwest 98 113 5,000 -350 Descending Memphis Center
Mon 05:36:56 PM 34.8242 -89.3908 315° West 105 121 4,700 -350 Descending Memphis Center
Mon 05:37:56 PM 34.8494 -89.4158 321° Northwest 111 128 4,300 -350 Descending Memphis Center
Mon 05:38:56 PM 34.8703 -89.4408 315° West 116 133 4,000 -150 Descending Memphis Center
Mon 05:39:56 PM 34.8956 -89.4633 324° Northwest 116 133 4,000  Level Memphis Center
Mon 05:42:05 PM 34.9500 -89.5167 321° Northwest 106 122 4,000  Level KMEM
Mon 05:43:05 PM 34.9500 -89.5500 270° West 106 122 4,000  Level KMEM
Mon 05:44:05 PM 34.9667 -89.5833 301° West 109 125 4,000  Level KMEM
Mon 05:45:05 PM 34.9667 -89.6167 270° West 103 119 4,000  Level KMEM
Mon 05:45:59 PM 34.9833 -89.6500 301° West 103 119 4,000  Level KMEM
Mon 05:47:05 PM 34.9833 -89.6833 270° West 100 115 4,000  Level KMEM
Mon 05:48:11 PM 35.0000 -89.7167 301° West 95 109 4,000 -143 Level KMEM
Mon 05:49:11 PM 35.0000 -89.7500 270° West 105 121 3,700 -300 Descending KMEM
Mon 05:50:11 PM 35.0167 -89.7833 301° West 114 131 3,400 -300 Descending KMEM
Mon 05:51:11 PM 35.0333 -89.8167 301° West 112 129 3,100 -200 Descending KMEM
Mon 05:52:11 PM 35.0333 -89.8500 270° West 105 121 3,000 -50 Descending KMEM
Mon 05:53:11 PM 35.0500 -89.8833 301° West 104 120 3,000  Level KMEM
Mon 05:54:11 PM 35.0500 -89.9167 270° West 105 121 3,000  Level KMEM
Mon 05:55:11 PM 35.0667 -89.9500 301° West 103 119 3,000  Level KMEM
Mon 05:56:05 PM 35.0667 -89.9833 270° West 105 121 3,000  Level KMEM
Mon 05:57:05 PM 35.0833 -90.0167 301° West 103 119 3,000 -250 Level KMEM
Mon 05:58:05 PM 35.1000 -90.0500 301° West 110 127 2,500 -421 Descending KMEM
Mon 05:58:59 PM 35.1000 -90.0667 270° West 113 130 2,200 -368 Descending KMEM
Mon 05:59:59 PM 35.1167 -90.1000 301° West 111 128 1,800 -400 Descending KMEM

Login

Don't have an account? Register now (free) for customized features, flight alerts, and more!